sensor_id;sensor_type;location;lat;lon;timestamp;pressure;altitude;pressure_sealevel;temperature;humidity
79174;BME280;68599;49.142;9.124;2023-04-25T00:02:11;99106.95;;;9.21;70.61
79174;BME280;68599;49.142;9.124;2023-04-25T00:04:38;99108.05;;;9.21;70.30
79174;BME280;68599;49.142;9.124;2023-04-25T00:07:05;99110.36;;;9.21;70.29
79174;BME280;68599;49.142;9.124;2023-04-25T00:09:32;99108.60;;;9.20;69.98
79174;BME280;68599;49.142;9.124;2023-04-25T00:11:59;99105.45;;;9.24;69.54
79174;BME280;68599;49.142;9.124;2023-04-25T00:14:28;99111.38;;;9.24;68.96
79174;BME280;68599;49.142;9.124;2023-04-25T00:16:54;99113.34;;;9.26;68.73
79174;BME280;68599;49.142;9.124;2023-04-25T00:19:21;99113.42;;;9.31;68.26
79174;BME280;68599;49.142;9.124;2023-04-25T00:21:48;99111.92;;;9.24;68.17
79174;BME280;68599;49.142;9.124;2023-04-25T00:24:14;99112.52;;;9.22;67.92
79174;BME280;68599;49.142;9.124;2023-04-25T00:26:41;99110.23;;;9.19;67.54
79174;BME280;68599;49.142;9.124;2023-04-25T00:29:08;99113.23;;;9.13;67.58
79174;BME280;68599;49.142;9.124;2023-04-25T00:31:34;99111.31;;;9.10;67.70
79174;BME280;68599;49.142;9.124;2023-04-25T00:34:01;99107.50;;;9.12;67.33
79174;BME280;68599;49.142;9.124;2023-04-25T00:36:27;99107.88;;;9.11;67.18
79174;BME280;68599;49.142;9.124;2023-04-25T00:38:54;99102.75;;;9.07;67.03
79174;BME280;68599;49.142;9.124;2023-04-25T00:41:25;99102.13;;;9.02;67.15
79174;BME280;68599;49.142;9.124;2023-04-25T00:43:54;99097.30;;;9.01;67.11
79174;BME280;68599;49.142;9.124;2023-04-25T00:46:21;99093.04;;;9.07;67.02
79174;BME280;68599;49.142;9.124;2023-04-25T00:48:47;99091.62;;;9.05;67.43
79174;BME280;68599;49.142;9.124;2023-04-25T00:51:16;99087.35;;;9.14;67.08
79174;BME280;68599;49.142;9.124;2023-04-25T00:53:46;99083.58;;;9.03;67.26
79174;BME280;68599;49.142;9.124;2023-04-25T00:56:14;99081.53;;;8.99;67.31
79174;BME280;68599;49.142;9.124;2023-04-25T00:58:41;99087.85;;;8.97;67.40
79174;BME280;68599;49.142;9.124;2023-04-25T01:01:10;99086.62;;;8.95;67.38
79174;BME280;68599;49.142;9.124;2023-04-25T01:03:38;99087.02;;;8.94;67.16
79174;BME280;68599;49.142;9.124;2023-04-25T01:06:09;99082.78;;;8.89;67.34
79174;BME280;68599;49.142;9.124;2023-04-25T01:08:38;99088.36;;;8.89;67.18
79174;BME280;68599;49.142;9.124;2023-04-25T01:11:05;99081.77;;;8.86;67.72
79174;BME280;68599;49.142;9.124;2023-04-25T01:13:32;99086.45;;;8.86;67.31
79174;BME280;68599;49.142;9.124;2023-04-25T01:16:00;99083.25;;;8.84;67.83
79174;BME280;68599;49.142;9.124;2023-04-25T01:18:26;99081.78;;;8.86;67.46
79174;BME280;68599;49.142;9.124;2023-04-25T01:20:54;99084.48;;;8.95;67.84
79174;BME280;68599;49.142;9.124;2023-04-25T01:23:21;99086.52;;;9.00;67.74
79174;BME280;68599;49.142;9.124;2023-04-25T01:25:48;99084.85;;;8.94;67.73
79174;BME280;68599;49.142;9.124;2023-04-25T01:28:16;99083.49;;;8.99;68.09
79174;BME280;68599;49.142;9.124;2023-04-25T01:30:43;99079.35;;;8.99;67.87
79174;BME280;68599;49.142;9.124;2023-04-25T01:33:09;99077.87;;;8.93;68.08
79174;BME280;68599;49.142;9.124;2023-04-25T01:35:37;99078.40;;;8.93;67.90
79174;BME280;68599;49.142;9.124;2023-04-25T01:38:03;99076.92;;;8.86;68.38
79174;BME280;68599;49.142;9.124;2023-04-25T01:40:31;99071.98;;;8.82;68.38
79174;BME280;68599;49.142;9.124;2023-04-25T01:42:59;99074.80;;;8.75;68.33
79174;BME280;68599;49.142;9.124;2023-04-25T01:45:25;99071.89;;;8.67;68.62
79174;BME280;68599;49.142;9.124;2023-04-25T01:47:52;99073.21;;;8.63;68.76
79174;BME280;68599;49.142;9.124;2023-04-25T01:50:19;99073.50;;;8.58;69.04
79174;BME280;68599;49.142;9.124;2023-04-25T01:52:46;99072.92;;;8.59;68.85
79174;BME280;68599;49.142;9.124;2023-04-25T01:55:13;99078.10;;;8.61;69.22
79174;BME280;68599;49.142;9.124;2023-04-25T01:57:39;99073.63;;;8.61;69.55
79174;BME280;68599;49.142;9.124;2023-04-25T02:00:06;99069.80;;;8.64;69.59
79174;BME280;68599;49.142;9.124;2023-04-25T02:02:33;99066.55;;;8.64;69.29
79174;BME280;68599;49.142;9.124;2023-04-25T02:05:00;99068.85;;;8.66;69.04
79174;BME280;68599;49.142;9.124;2023-04-25T02:07:27;99071.48;;;8.70;69.23
79174;BME280;68599;49.142;9.124;2023-04-25T02:09:53;99070.00;;;8.73;68.89
79174;BME280;68599;49.142;9.124;2023-04-25T02:12:20;99067.28;;;8.73;68.82
79174;BME280;68599;49.142;9.124;2023-04-25T02:14:46;99065.15;;;8.72;68.64
79174;BME280;68599;49.142;9.124;2023-04-25T02:17:13;99065.52;;;8.72;68.40
79174;BME280;68599;49.142;9.124;2023-04-25T02:19:39;99066.05;;;8.73;68.50
79174;BME280;68599;49.142;9.124;2023-04-25T02:22:06;99065.67;;;8.73;68.29
79174;BME280;68599;49.142;9.124;2023-04-25T02:24:33;99062.81;;;8.72;69.17
79174;BME280;68599;49.142;9.124;2023-04-25T02:27:01;99062.27;;;8.73;68.83
79174;BME280;68599;49.142;9.124;2023-04-25T02:29:27;99062.27;;;8.73;68.69
79174;BME280;68599;49.142;9.124;2023-04-25T02:31:54;99064.95;;;8.74;68.21
79174;BME280;68599;49.142;9.124;2023-04-25T02:34:21;99067.60;;;8.76;68.41
79174;BME280;68599;49.142;9.124;2023-04-25T02:36:48;99068.23;;;8.80;68.59
79174;BME280;68599;49.142;9.124;2023-04-25T02:39:17;99067.96;;;8.85;68.64
79174;BME280;68599;49.142;9.124;2023-04-25T02:41:43;99063.26;;;8.87;68.83
79174;BME280;68599;49.142;9.124;2023-04-25T02:44:10;99063.42;;;8.88;68.53
79174;BME280;68599;49.142;9.124;2023-04-25T02:46:37;99063.41;;;8.88;68.66
79174;BME280;68599;49.142;9.124;2023-04-25T02:49:05;99063.79;;;8.87;68.53
79174;BME280;68599;49.142;9.124;2023-04-25T02:51:32;99064.04;;;8.84;68.54
79174;BME280;68599;49.142;9.124;2023-04-25T02:53:59;99060.34;;;8.79;68.96
79174;BME280;68599;49.142;9.124;2023-04-25T02:56:25;99061.98;;;8.79;68.96
79174;BME280;68599;49.142;9.124;2023-04-25T02:58:53;99058.54;;;8.81;68.79
79174;BME280;68599;49.142;9.124;2023-04-25T03:01:20;99057.09;;;8.71;69.25
79174;BME280;68599;49.142;9.124;2023-04-25T03:03:46;99046.71;;;8.60;69.30
79174;BME280;68599;49.142;9.124;2023-04-25T03:06:13;99046.77;;;8.57;69.48
79174;BME280;68599;49.142;9.124;2023-04-25T03:08:41;99050.98;;;8.62;69.67
79174;BME280;68599;49.142;9.124;2023-04-25T03:11:07;99050.80;;;8.63;69.75
79174;BME280;68599;49.142;9.124;2023-04-25T03:13:34;99049.60;;;8.68;70.02
79174;BME280;68599;49.142;9.124;2023-04-25T03:16:00;99052.63;;;8.69;70.13
79174;BME280;68599;49.142;9.124;2023-04-25T03:18:27;99050.13;;;8.69;70.64
79174;BME280;68599;49.142;9.124;2023-04-25T03:20:54;99048.02;;;8.66;70.32
79174;BME280;68599;49.142;9.124;2023-04-25T03:23:20;99050.05;;;8.63;70.42
79174;BME280;68599;49.142;9.124;2023-04-25T03:25:47;99053.20;;;8.58;70.54
79174;BME280;68599;49.142;9.124;2023-04-25T03:28:14;99049.13;;;8.55;70.98
79174;BME280;68599;49.142;9.124;2023-04-25T03:30:40;99046.83;;;8.54;71.00
79174;BME280;68599;49.142;9.124;2023-04-25T03:33:07;99041.77;;;8.45;71.29
79174;BME280;68599;49.142;9.124;2023-04-25T03:35:33;99044.16;;;8.42;71.31
79174;BME280;68599;49.142;9.124;2023-04-25T03:38:00;99049.33;;;8.35;71.69
79174;BME280;68599;49.142;9.124;2023-04-25T03:40:26;99047.41;;;8.41;72.17
79174;BME280;68599;49.142;9.124;2023-04-25T03:42:53;99050.23;;;8.33;72.40
79174;BME280;68599;49.142;9.124;2023-04-25T03:45:19;99051.10;;;8.35;72.73
79174;BME280;68599;49.142;9.124;2023-04-25T03:47:46;99043.96;;;8.33;72.91
79174;BME280;68599;49.142;9.124;2023-04-25T03:50:13;99051.48;;;8.33;73.36
79174;BME280;68599;49.142;9.124;2023-04-25T03:52:39;99047.61;;;8.28;73.04
79174;BME280;68599;49.142;9.124;2023-04-25T03:55:06;99049.04;;;8.29;72.88
79174;BME280;68599;49.142;9.124;2023-04-25T03:57:33;99053.77;;;8.25;72.99
79174;BME280;68599;49.142;9.124;2023-04-25T03:59:59;99054.90;;;8.21;72.89
79174;BME280;68599;49.142;9.124;2023-04-25T04:02:26;99056.37;;;8.19;72.99
79174;BME280;68599;49.142;9.124;2023-04-25T04:04:53;99053.49;;;8.19;72.82
79174;BME280;68599;49.142;9.124;2023-04-25T04:07:20;99055.17;;;8.16;73.39
79174;BME280;68599;49.142;9.124;2023-04-25T04:09:47;99055.75;;;8.13;73.92
79174;BME280;68599;49.142;9.124;2023-04-25T04:12:13;99058.40;;;8.16;73.98
79174;BME280;68599;49.142;9.124;2023-04-25T04:14:40;99062.73;;;8.14;74.57
79174;BME280;68599;49.142;9.124;2023-04-25T04:17:06;99059.55;;;8.22;74.32
79174;BME280;68599;49.142;9.124;2023-04-25T04:19:33;99058.16;;;8.19;74.36
79174;BME280;68599;49.142;9.124;2023-04-25T04:22:00;99063.52;;;8.21;74.74
79174;BME280;68599;49.142;9.124;2023-04-25T04:24:26;99064.16;;;8.15;74.57
79174;BME280;68599;49.142;9.124;2023-04-25T04:26:53;99066.07;;;8.08;74.72
79174;BME280;68599;49.142;9.124;2023-04-25T04:29:19;99070.55;;;8.08;74.82
79174;BME280;68599;49.142;9.124;2023-04-25T04:31:49;99069.57;;;8.02;75.37
79174;BME280;68599;49.142;9.124;2023-04-25T04:34:17;99073.21;;;7.99;74.81
79174;BME280;68599;49.142;9.124;2023-04-25T04:36:45;99075.73;;;7.98;75.16
79174;BME280;68599;49.142;9.124;2023-04-25T04:39:14;99075.39;;;7.98;75.26
79174;BME280;68599;49.142;9.124;2023-04-25T04:41:41;99078.44;;;7.98;75.58
79174;BME280;68599;49.142;9.124;2023-04-25T04:44:09;99080.92;;;7.99;76.02
79174;BME280;68599;49.142;9.124;2023-04-25T04:46:36;99073.70;;;8.02;76.08
79174;BME280;68599;49.142;9.124;2023-04-25T04:49:09;99079.27;;;8.02;76.04
79174;BME280;68599;49.142;9.124;2023-04-25T04:51:36;99080.09;;;8.07;76.22
79174;BME280;68599;49.142;9.124;2023-04-25T04:54:03;99081.26;;;8.13;75.62
79174;BME280;68599;49.142;9.124;2023-04-25T04:56:30;99093.02;;;8.06;75.63
79174;BME280;68599;49.142;9.124;2023-04-25T04:58:57;99093.50;;;8.09;75.70
79174;BME280;68599;49.142;9.124;2023-04-25T05:01:25;99095.66;;;8.09;75.61
79174;BME280;68599;49.142;9.124;2023-04-25T05:03:52;99098.95;;;8.05;75.34
79174;BME280;68599;49.142;9.124;2023-04-25T05:06:20;99100.64;;;8.01;75.60
79174;BME280;68599;49.142;9.124;2023-04-25T05:08:46;99105.52;;;7.98;76.34
79174;BME280;68599;49.142;9.124;2023-04-25T05:11:13;99107.13;;;7.99;75.81
79174;BME280;68599;49.142;9.124;2023-04-25T05:13:40;99105.40;;;8.06;76.33
79174;BME280;68599;49.142;9.124;2023-04-25T05:16:06;99103.54;;;8.09;77.50
79174;BME280;68599;49.142;9.124;2023-04-25T05:18:33;99101.23;;;8.19;76.42
79174;BME280;68599;49.142;9.124;2023-04-25T05:20:59;99106.35;;;8.24;75.96
79174;BME280;68599;49.142;9.124;2023-04-25T05:23:26;99108.64;;;8.28;75.78
79174;BME280;68599;49.142;9.124;2023-04-25T05:25:54;99106.27;;;8.30;75.92
79174;BME280;68599;49.142;9.124;2023-04-25T05:28:21;99105.41;;;8.28;76.39
79174;BME280;68599;49.142;9.124;2023-04-25T05:30:48;99106.98;;;8.33;75.62
79174;BME280;68599;49.142;9.124;2023-04-25T05:33:15;99105.77;;;8.27;75.71
79174;BME280;68599;49.142;9.124;2023-04-25T05:35:41;99106.45;;;8.31;75.31
79174;BME280;68599;49.142;9.124;2023-04-25T05:38:08;99107.35;;;8.30;75.26
79174;BME280;68599;49.142;9.124;2023-04-25T05:40:35;99110.62;;;8.28;75.78
79174;BME280;68599;49.142;9.124;2023-04-25T05:43:01;99116.15;;;8.31;75.56
79174;BME280;68599;49.142;9.124;2023-04-25T05:45:28;99110.05;;;8.31;75.66
79174;BME280;68599;49.142;9.124;2023-04-25T05:47:55;99112.90;;;8.32;75.94
79174;BME280;68599;49.142;9.124;2023-04-25T05:50:22;99109.61;;;8.47;75.74
79174;BME280;68599;49.142;9.124;2023-04-25T05:52:48;99113.98;;;8.63;75.01
79174;BME280;68599;49.142;9.124;2023-04-25T05:55:15;99109.06;;;8.67;75.01
79174;BME280;68599;49.142;9.124;2023-04-25T05:57:42;99106.71;;;8.78;74.11
79174;BME280;68599;49.142;9.124;2023-04-25T06:00:12;99103.73;;;8.84;73.88
79174;BME280;68599;49.142;9.124;2023-04-25T06:02:41;99110.48;;;8.97;73.90
79174;BME280;68599;49.142;9.124;2023-04-25T06:05:08;99108.58;;;9.12;73.60
79174;BME280;68599;49.142;9.124;2023-04-25T06:07:35;99110.85;;;9.33;73.38
79174;BME280;68599;49.142;9.124;2023-04-25T06:10:02;99110.55;;;9.56;72.40
79174;BME280;68599;49.142;9.124;2023-04-25T06:12:32;99116.51;;;9.64;72.34
79174;BME280;68599;49.142;9.124;2023-04-25T06:15:00;99120.94;;;9.83;71.85
79174;BME280;68599;49.142;9.124;2023-04-25T06:17:27;99117.66;;;9.83;71.43
79174;BME280;68599;49.142;9.124;2023-04-25T06:19:54;99115.59;;;9.96;72.14
79174;BME280;68599;49.142;9.124;2023-04-25T06:22:21;99108.54;;;10.13;71.74
79174;BME280;68599;49.142;9.124;2023-04-25T06:24:47;99101.81;;;10.32;71.13
79174;BME280;68599;49.142;9.124;2023-04-25T06:27:14;99103.34;;;10.34;69.82
79174;BME280;68599;49.142;9.124;2023-04-25T06:29:42;99102.20;;;10.37;70.37
79174;BME280;68599;49.142;9.124;2023-04-25T06:32:08;99102.73;;;10.45;69.78
79174;BME280;68599;49.142;9.124;2023-04-25T06:34:35;99101.36;;;10.56;69.46
79174;BME280;68599;49.142;9.124;2023-04-25T06:37:02;99095.70;;;10.73;68.46
79174;BME280;68599;49.142;9.124;2023-04-25T06:39:29;99100.95;;;10.86;67.91
79174;BME280;68599;49.142;9.124;2023-04-25T06:41:55;99100.17;;;10.88;67.84
79174;BME280;68599;49.142;9.124;2023-04-25T06:44:22;99106.77;;;10.91;67.80
79174;BME280;68599;49.142;9.124;2023-04-25T06:46:50;99110.55;;;10.90;67.49
79174;BME280;68599;49.142;9.124;2023-04-25T06:49:17;99111.16;;;10.95;67.52
79174;BME280;68599;49.142;9.124;2023-04-25T06:51:43;99111.85;;;10.96;67.64
79174;BME280;68599;49.142;9.124;2023-04-25T06:54:10;99115.81;;;10.82;67.56
79174;BME280;68599;49.142;9.124;2023-04-25T06:56:36;99115.65;;;10.82;67.44
79174;BME280;68599;49.142;9.124;2023-04-25T06:59:03;99115.86;;;10.67;67.66
79174;BME280;68599;49.142;9.124;2023-04-25T07:01:29;99117.33;;;10.73;67.84
79174;BME280;68599;49.142;9.124;2023-04-25T07:03:56;99119.25;;;10.75;67.55
79174;BME280;68599;49.142;9.124;2023-04-25T07:06:23;99118.73;;;10.67;67.53
79174;BME280;68599;49.142;9.124;2023-04-25T07:08:52;99120.89;;;10.68;67.62
79174;BME280;68599;49.142;9.124;2023-04-25T07:11:19;99123.58;;;10.75;67.17
79174;BME280;68599;49.142;9.124;2023-04-25T07:13:45;99126.31;;;10.60;67.15
79174;BME280;68599;49.142;9.124;2023-04-25T07:16:12;99131.25;;;10.57;67.24
79174;BME280;68599;49.142;9.124;2023-04-25T07:18:38;99129.69;;;10.48;67.20
79174;BME280;68599;49.142;9.124;2023-04-25T07:21:05;99132.33;;;10.42;67.69
79174;BME280;68599;49.142;9.124;2023-04-25T07:23:32;99130.96;;;10.47;67.42
79174;BME280;68599;49.142;9.124;2023-04-25T07:25:58;99131.92;;;10.45;67.28
79174;BME280;68599;49.142;9.124;2023-04-25T07:28:25;99135.88;;;10.45;67.13
79174;BME280;68599;49.142;9.124;2023-04-25T07:30:51;99139.16;;;10.36;67.43
79174;BME280;68599;49.142;9.124;2023-04-25T07:33:18;99136.64;;;10.36;67.72
79174;BME280;68599;49.142;9.124;2023-04-25T07:35:46;99138.52;;;10.40;67.90
79174;BME280;68599;49.142;9.124;2023-04-25T07:38:13;99143.39;;;10.32;68.22
79174;BME280;68599;49.142;9.124;2023-04-25T07:40:40;99142.60;;;10.43;68.21
79174;BME280;68599;49.142;9.124;2023-04-25T07:43:06;99144.35;;;10.58;67.74
79174;BME280;68599;49.142;9.124;2023-04-25T07:45:33;99139.97;;;10.61;67.71
79174;BME280;68599;49.142;9.124;2023-04-25T07:47:59;99143.79;;;10.81;66.90
79174;BME280;68599;49.142;9.124;2023-04-25T07:50:26;99144.11;;;10.89;66.31
79174;BME280;68599;49.142;9.124;2023-04-25T07:52:53;99142.77;;;10.99;66.19
79174;BME280;68599;49.142;9.124;2023-04-25T07:55:19;99145.13;;;10.98;65.97
79174;BME280;68599;49.142;9.124;2023-04-25T07:57:46;99151.04;;;10.93;65.79
79174;BME280;68599;49.142;9.124;2023-04-25T08:00:13;99154.50;;;10.78;66.14
79174;BME280;68599;49.142;9.124;2023-04-25T08:02:41;99154.86;;;10.85;66.33
79174;BME280;68599;49.142;9.124;2023-04-25T08:05:08;99157.70;;;10.80;66.24
79174;BME280;68599;49.142;9.124;2023-04-25T08:07:38;99162.67;;;10.76;66.47
79174;BME280;68599;49.142;9.124;2023-04-25T08:10:06;99164.82;;;10.76;66.17
79174;BME280;68599;49.142;9.124;2023-04-25T08:12:33;99162.33;;;10.68;65.33
79174;BME280;68599;49.142;9.124;2023-04-25T08:14:59;99167.61;;;10.73;65.09
79174;BME280;68599;49.142;9.124;2023-04-25T08:17:26;99171.86;;;10.68;65.01
79174;BME280;68599;49.142;9.124;2023-04-25T08:19:53;99175.83;;;10.61;65.38
79174;BME280;68599;49.142;9.124;2023-04-25T08:22:20;99183.65;;;10.57;65.82
79174;BME280;68599;49.142;9.124;2023-04-25T08:24:46;99182.91;;;10.73;65.39
79174;BME280;68599;49.142;9.124;2023-04-25T08:27:13;99186.75;;;10.85;64.70
79174;BME280;68599;49.142;9.124;2023-04-25T08:29:41;99184.05;;;10.78;64.69
79174;BME280;68599;49.142;9.124;2023-04-25T08:32:08;99193.59;;;10.86;64.53
79174;BME280;68599;49.142;9.124;2023-04-25T08:34:34;99194.71;;;10.97;64.45
79174;BME280;68599;49.142;9.124;2023-04-25T08:37:03;99198.89;;;10.90;64.61
79174;BME280;68599;49.142;9.124;2023-04-25T08:39:30;99200.69;;;10.98;64.04
79174;BME280;68599;49.142;9.124;2023-04-25T08:41:57;99202.49;;;11.11;63.90
79174;BME280;68599;49.142;9.124;2023-04-25T08:44:24;99203.56;;;11.18;63.63
79174;BME280;68599;49.142;9.124;2023-04-25T08:46:52;99202.98;;;11.33;63.08
79174;BME280;68599;49.142;9.124;2023-04-25T08:49:18;99204.57;;;11.34;62.74
79174;BME280;68599;49.142;9.124;2023-04-25T08:51:46;99207.23;;;11.42;63.36
79174;BME280;68599;49.142;9.124;2023-04-25T08:54:14;99206.06;;;11.58;62.86
79174;BME280;68599;49.142;9.124;2023-04-25T08:57:03;99207.84;;;11.67;62.32
79174;BME280;68599;49.142;9.124;2023-04-25T08:59:32;99215.48;;;11.90;61.45
79174;BME280;68599;49.142;9.124;2023-04-25T09:02:00;99214.63;;;11.69;60.89
79174;BME280;68599;49.142;9.124;2023-04-25T09:04:30;99220.48;;;11.72;61.32
79174;BME280;68599;49.142;9.124;2023-04-25T09:06:57;99225.46;;;11.48;61.19
79174;BME280;68599;49.142;9.124;2023-04-25T09:09:24;99224.88;;;11.50;62.03
79174;BME280;68599;49.142;9.124;2023-04-25T09:11:54;99227.52;;;11.52;62.22
79174;BME280;68599;49.142;9.124;2023-04-25T09:14:22;99227.65;;;11.47;61.96
79174;BME280;68599;49.142;9.124;2023-04-25T09:19:25;99238.61;;;11.09;63.39
79174;BME280;68599;49.142;9.124;2023-04-25T09:22:07;99242.57;;;11.02;63.73
79174;BME280;68599;49.142;9.124;2023-04-25T09:24:38;99247.48;;;11.08;63.37
79174;BME280;68599;49.142;9.124;2023-04-25T09:27:06;99254.39;;;10.90;64.11
79174;BME280;68599;49.142;9.124;2023-04-25T09:29:35;99261.20;;;10.62;66.11
79174;BME280;68599;49.142;9.124;2023-04-25T09:32:13;99266.57;;;10.48;66.88
79174;BME280;68599;49.142;9.124;2023-04-25T09:34:42;99270.66;;;10.26;68.23
79174;BME280;68599;49.142;9.124;2023-04-25T09:37:10;99274.94;;;10.20;67.43
79174;BME280;68599;49.142;9.124;2023-04-25T09:39:38;99276.57;;;10.10;67.51
79174;BME280;68599;49.142;9.124;2023-04-25T09:42:05;99281.32;;;10.06;68.02
79174;BME280;68599;49.142;9.124;2023-04-25T09:44:32;99286.01;;;10.06;67.98
79174;BME280;68599;49.142;9.124;2023-04-25T09:46:58;99285.94;;;10.10;69.45
79174;BME280;68599;49.142;9.124;2023-04-25T09:49:26;99287.96;;;10.34;68.45
79174;BME280;68599;49.142;9.124;2023-04-25T09:51:57;99291.55;;;10.42;67.88
79174;BME280;68599;49.142;9.124;2023-04-25T09:54:25;99296.11;;;10.49;66.75
79174;BME280;68599;49.142;9.124;2023-04-25T09:56:52;99299.09;;;10.44;66.77
79174;BME280;68599;49.142;9.124;2023-04-25T09:59:21;99303.06;;;10.51;66.39
79174;BME280;68599;49.142;9.124;2023-04-25T10:01:49;99302.53;;;10.51;66.88
79174;BME280;68599;49.142;9.124;2023-04-25T10:04:23;99305.08;;;10.66;66.61
79174;BME280;68599;49.142;9.124;2023-04-25T10:06:52;99307.97;;;10.73;65.78
79174;BME280;68599;49.142;9.124;2023-04-25T10:09:20;99311.98;;;10.71;65.51
79174;BME280;68599;49.142;9.124;2023-04-25T10:11:47;99311.75;;;10.65;65.32
79174;BME280;68599;49.142;9.124;2023-04-25T10:14:14;99322.38;;;10.41;68.04
79174;BME280;68599;49.142;9.124;2023-04-25T10:16:41;99318.27;;;10.64;67.06
79174;BME280;68599;49.142;9.124;2023-04-25T10:19:12;99321.90;;;10.55;67.16
79174;BME280;68599;49.142;9.124;2023-04-25T10:21:46;99326.17;;;10.41;69.16
79174;BME280;68599;49.142;9.124;2023-04-25T10:24:14;99328.91;;;10.47;68.20
79174;BME280;68599;49.142;9.124;2023-04-25T10:26:41;99331.26;;;10.30;69.28
79174;BME280;68599;49.142;9.124;2023-04-25T10:29:09;99326.83;;;10.27;69.08
79174;BME280;68599;49.142;9.124;2023-04-25T10:31:45;99326.67;;;10.26;69.73
79174;BME280;68599;49.142;9.124;2023-04-25T10:34:12;99324.29;;;10.45;68.63
79174;BME280;68599;49.142;9.124;2023-04-25T10:36:39;99324.86;;;10.67;68.09
79174;BME280;68599;49.142;9.124;2023-04-25T10:39:06;99326.25;;;10.94;68.11
79174;BME280;68599;49.142;9.124;2023-04-25T10:41:56;99322.42;;;11.53;67.14
79174;BME280;68599;49.142;9.124;2023-04-25T10:44:26;99316.40;;;12.40;65.19
79174;BME280;68599;49.142;9.124;2023-04-25T10:46:55;99315.91;;;13.14;63.54
79174;BME280;68599;49.142;9.124;2023-04-25T10:49:35;99316.67;;;13.92;62.45
79174;BME280;68599;49.142;9.124;2023-04-25T10:52:15;99314.35;;;14.36;59.12
79174;BME280;68599;49.142;9.124;2023-04-25T10:54:47;99316.92;;;14.11;58.31
79174;BME280;68599;49.142;9.124;2023-04-25T10:57:27;99317.78;;;14.12;58.01
79174;BME280;68599;49.142;9.124;2023-04-25T11:02:40;99319.34;;;14.14;58.30
79174;BME280;68599;49.142;9.124;2023-04-25T11:05:09;99320.56;;;14.25;57.80
79174;BME280;68599;49.142;9.124;2023-04-25T11:07:49;99324.83;;;14.17;57.15
79174;BME280;68599;49.142;9.124;2023-04-25T11:10:37;99327.37;;;13.92;58.24
79174;BME280;68599;49.142;9.124;2023-04-25T11:13:06;99325.49;;;13.84;57.45
79174;BME280;68599;49.142;9.124;2023-04-25T11:15:32;99323.90;;;13.78;57.66
79174;BME280;68599;49.142;9.124;2023-04-25T11:17:59;99325.20;;;13.82;57.96
79174;BME280;68599;49.142;9.124;2023-04-25T11:20:26;99322.17;;;14.06;56.53
79174;BME280;68599;49.142;9.124;2023-04-25T11:22:57;99318.15;;;14.11;56.65
79174;BME280;68599;49.142;9.124;2023-04-25T11:25:25;99320.64;;;14.28;55.43
79174;BME280;68599;49.142;9.124;2023-04-25T11:27:53;99319.69;;;14.39;54.93
79174;BME280;68599;49.142;9.124;2023-04-25T11:30:21;99321.27;;;14.30;55.53
79174;BME280;68599;49.142;9.124;2023-04-25T11:32:48;99324.23;;;14.58;55.20
79174;BME280;68599;49.142;9.124;2023-04-25T11:35:14;99322.24;;;14.76;53.81
79174;BME280;68599;49.142;9.124;2023-04-25T11:37:43;99327.13;;;14.76;54.01
79174;BME280;68599;49.142;9.124;2023-04-25T11:40:10;99330.73;;;14.54;54.66
79174;BME280;68599;49.142;9.124;2023-04-25T11:42:45;99331.43;;;14.59;53.25
79174;BME280;68599;49.142;9.124;2023-04-25T11:45:13;99328.66;;;14.27;52.84
79174;BME280;68599;49.142;9.124;2023-04-25T11:47:39;99326.16;;;14.73;51.66
79174;BME280;68599;49.142;9.124;2023-04-25T11:50:08;99326.81;;;15.29;51.33
79174;BME280;68599;49.142;9.124;2023-04-25T11:52:41;99324.41;;;15.35;51.82
79174;BME280;68599;49.142;9.124;2023-04-25T11:55:10;99327.05;;;15.23;50.76
79174;BME280;68599;49.142;9.124;2023-04-25T11:57:39;99331.75;;;15.02;52.29
79174;BME280;68599;49.142;9.124;2023-04-25T12:02:45;99337.42;;;14.78;50.63
79174;BME280;68599;49.142;9.124;2023-04-25T12:05:14;99335.29;;;14.43;48.84
79174;BME280;68599;49.142;9.124;2023-04-25T12:07:46;99335.00;;;14.01;49.57
79174;BME280;68599;49.142;9.124;2023-04-25T12:10:16;99343.17;;;13.75;51.39
79174;BME280;68599;49.142;9.124;2023-04-25T12:12:44;99338.75;;;14.51;49.72
79174;BME280;68599;49.142;9.124;2023-04-25T12:15:13;99343.15;;;15.52;44.90
79174;BME280;68599;49.142;9.124;2023-04-25T12:17:44;99341.95;;;15.50;45.15
79174;BME280;68599;49.142;9.124;2023-04-25T12:20:13;99340.66;;;15.72;44.97
79174;BME280;68599;49.142;9.124;2023-04-25T12:22:50;99339.23;;;15.89;43.85
79174;BME280;68599;49.142;9.124;2023-04-25T12:25:39;99340.33;;;16.25;42.75
79174;BME280;68599;49.142;9.124;2023-04-25T12:33:26;99352.95;;;16.11;41.98
79174;BME280;68599;49.142;9.124;2023-04-25T12:35:54;99350.51;;;16.37;41.19
79174;BME280;68599;49.142;9.124;2023-04-25T12:38:22;99354.92;;;16.24;41.25
79174;BME280;68599;49.142;9.124;2023-04-25T12:40:49;99356.10;;;16.10;41.67
79174;BME280;68599;49.142;9.124;2023-04-25T12:43:15;99365.02;;;15.58;42.66
79174;BME280;68599;49.142;9.124;2023-04-25T12:45:42;99366.30;;;15.58;42.90
79174;BME280;68599;49.142;9.124;2023-04-25T12:48:08;99366.50;;;16.25;41.81
79174;BME280;68599;49.142;9.124;2023-04-25T12:50:35;99362.90;;;17.59;39.12
79174;BME280;68599;49.142;9.124;2023-04-25T12:53:01;99363.30;;;18.60;37.95
79174;BME280;68599;49.142;9.124;2023-04-25T12:55:28;99363.39;;;18.31;37.95
79174;BME280;68599;49.142;9.124;2023-04-25T12:57:54;99366.29;;;18.11;38.12
79174;BME280;68599;49.142;9.124;2023-04-25T13:00:20;99367.17;;;18.49;37.55
79174;BME280;68599;49.142;9.124;2023-04-25T13:02:47;99371.78;;;19.63;35.81
79174;BME280;68599;49.142;9.124;2023-04-25T13:05:14;99368.52;;;19.87;35.13
79174;BME280;68599;49.142;9.124;2023-04-25T13:07:40;99368.10;;;19.66;35.51
79174;BME280;68599;49.142;9.124;2023-04-25T13:10:07;99363.81;;;20.20;34.94
79174;BME280;68599;49.142;9.124;2023-04-25T13:12:34;99360.54;;;21.71;31.36
79174;BME280;68599;49.142;9.124;2023-04-25T13:15:01;99364.27;;;21.49;31.40
79174;BME280;68599;49.142;9.124;2023-04-25T13:17:27;99361.27;;;21.27;30.96
79174;BME280;68599;49.142;9.124;2023-04-25T13:19:54;99365.99;;;20.11;32.45
79174;BME280;68599;49.142;9.124;2023-04-25T13:22:20;99364.23;;;20.80;32.03